sensor_id;sensor_type;location;lat;lon;timestamp;pressure;altitude;pressure_sealevel;temperature;humidity
40245;BME280;25963;42.694;23.600;2023-03-01T00:01:14;95742.81;;;5.20;100.00
40245;BME280;25963;42.694;23.600;2023-03-01T00:03:49;95732.09;;;5.07;100.00
40245;BME280;25963;42.694;23.600;2023-03-01T00:06:15;95723.47;;;4.98;100.00
40245;BME280;25963;42.694;23.600;2023-03-01T00:08:41;95720.63;;;5.16;100.00
40245;BME280;25963;42.694;23.600;2023-03-01T00:13:42;95724.56;;;5.12;100.00
40245;BME280;25963;42.694;23.600;2023-03-01T00:16:11;95726.88;;;5.07;100.00
40245;BME280;25963;42.694;23.600;2023-03-01T00:18:37;95719.56;;;4.94;100.00
40245;BME280;25963;42.694;23.600;2023-03-01T00:21:02;95729.50;;;4.98;100.00
40245;BME280;25963;42.694;23.600;2023-03-01T00:23:28;95720.72;;;4.91;100.00
40245;BME280;25963;42.694;23.600;2023-03-01T00:25:54;95729.16;;;5.01;100.00
40245;BME280;25963;42.694;23.600;2023-03-01T00:28:20;95720.50;;;5.01;100.00
40245;BME280;25963;42.694;23.600;2023-03-01T00:30:46;95718.38;;;4.96;100.00
40245;BME280;25963;42.694;23.600;2023-03-01T00:33:11;95718.44;;;4.80;100.00
40245;BME280;25963;42.694;23.600;2023-03-01T00:35:37;95714.69;;;4.83;100.00
40245;BME280;25963;42.694;23.600;2023-03-01T00:38:03;95709.94;;;4.78;100.00
40245;BME280;25963;42.694;23.600;2023-03-01T00:40:30;95714.16;;;4.87;100.00
40245;BME280;25963;42.694;23.600;2023-03-01T00:42:56;95700.75;;;4.90;100.00
40245;BME280;25963;42.694;23.600;2023-03-01T00:45:22;95703.72;;;4.87;100.00
40245;BME280;25963;42.694;23.600;2023-03-01T00:47:51;95688.22;;;4.86;100.00
40245;BME280;25963;42.694;23.600;2023-03-01T00:50:17;95702.41;;;4.91;100.00
40245;BME280;25963;42.694;23.600;2023-03-01T00:52:43;95693.78;;;4.83;100.00
40245;BME280;25963;42.694;23.600;2023-03-01T00:55:09;95691.81;;;4.85;100.00
40245;BME280;25963;42.694;23.600;2023-03-01T00:57:34;95691.47;;;4.88;100.00
40245;BME280;25963;42.694;23.600;2023-03-01T00:59:59;95692.09;;;4.98;100.00
40245;BME280;25963;42.694;23.600;2023-03-01T01:02:25;95693.38;;;5.02;100.00
40245;BME280;25963;42.694;23.600;2023-03-01T01:04:51;95693.91;;;4.97;100.00
40245;BME280;25963;42.694;23.600;2023-03-01T01:07:16;95690.63;;;4.95;100.00
40245;BME280;25963;42.694;23.600;2023-03-01T01:09:42;95680.19;;;4.87;100.00
40245;BME280;25963;42.694;23.600;2023-03-01T01:12:08;95685.06;;;4.90;100.00
40245;BME280;25963;42.694;23.600;2023-03-01T01:14:33;95680.84;;;4.89;100.00
40245;BME280;25963;42.694;23.600;2023-03-01T01:16:59;95678.56;;;4.86;100.00
40245;BME280;25963;42.694;23.600;2023-03-01T01:19:25;95683.13;;;4.92;100.00
40245;BME280;25963;42.694;23.600;2023-03-01T01:21:51;95686.09;;;4.81;100.00
40245;BME280;25963;42.694;23.600;2023-03-01T01:24:16;95697.53;;;4.88;100.00
40245;BME280;25963;42.694;23.600;2023-03-01T01:26:42;95697.53;;;4.88;100.00
40245;BME280;25963;42.694;23.600;2023-03-01T01:29:08;95687.53;;;4.92;100.00
40245;BME280;25963;42.694;23.600;2023-03-01T01:31:36;95678.25;;;4.81;100.00
40245;BME280;25963;42.694;23.600;2023-03-01T01:34:03;95678.56;;;4.86;100.00
40245;BME280;25963;42.694;23.600;2023-03-01T01:36:30;95689.34;;;4.83;100.00
40245;BME280;25963;42.694;23.600;2023-03-01T01:38:56;95690.66;;;4.87;100.00
40245;BME280;25963;42.694;23.600;2023-03-01T01:41:22;95693.78;;;4.83;100.00
40245;BME280;25963;42.694;23.600;2023-03-01T01:47:02;95696.50;;;4.97;100.00
40245;BME280;25963;42.694;23.600;2023-03-01T01:57:09;95702.78;;;4.72;100.00
40245;BME280;25963;42.694;23.600;2023-03-01T01:59:36;95695.88;;;4.87;100.00
40245;BME280;25963;42.694;23.600;2023-03-01T02:02:03;95695.06;;;4.87;100.00
40245;BME280;25963;42.694;23.600;2023-03-01T02:04:30;95689.34;;;4.91;100.00
40245;BME280;25963;42.694;23.600;2023-03-01T02:07:17;95679.22;;;4.88;100.00
40245;BME280;25963;42.694;23.600;2023-03-01T02:09:47;95686.91;;;4.81;100.00
40245;BME280;25963;42.694;23.600;2023-03-01T02:12:17;95679.56;;;4.85;100.00
40245;BME280;25963;42.694;23.600;2023-03-01T02:14:43;95682.63;;;4.97;100.00
40245;BME280;25963;42.694;23.600;2023-03-01T02:17:09;95677.72;;;4.94;100.00
40245;BME280;25963;42.694;23.600;2023-03-01T02:19:58;95669.72;;;4.95;100.00
40245;BME280;25963;42.694;23.600;2023-03-01T02:22:29;95666.78;;;4.90;100.00
40245;BME280;25963;42.694;23.600;2023-03-01T02:27:44;95672.41;;;4.79;100.00
40245;BME280;25963;42.694;23.600;2023-03-01T02:30:15;95665.69;;;4.85;100.00
40245;BME280;25963;42.694;23.600;2023-03-01T02:32:41;95684.44;;;4.88;100.00
40245;BME280;25963;42.694;23.600;2023-03-01T02:35:13;95665.38;;;4.79;100.00
40245;BME280;25963;42.694;23.600;2023-03-01T02:37:39;95679.22;;;4.88;100.00
40245;BME280;25963;42.694;23.600;2023-03-01T02:40:09;95668.31;;;4.76;100.00
40245;BME280;25963;42.694;23.600;2023-03-01T02:42:43;95675.78;;;4.88;100.00
40245;BME280;25963;42.694;23.600;2023-03-01T02:45:12;95679.41;;;4.78;100.00
40245;BME280;25963;42.694;23.600;2023-03-01T02:47:37;95676.63;;;4.80;100.00
40245;BME280;25963;42.694;23.600;2023-03-01T02:50:13;95673.69;;;4.83;100.00
40245;BME280;25963;42.694;23.600;2023-03-01T02:52:55;95680.69;;;4.91;100.00
40245;BME280;25963;42.694;23.600;2023-03-01T02:55:23;95657.66;;;4.86;100.00
40245;BME280;25963;42.694;23.600;2023-03-01T02:57:48;95663.88;;;4.85;100.00
40245;BME280;25963;42.694;23.600;2023-03-01T03:00:26;95671.09;;;4.75;100.00
40245;BME280;25963;42.694;23.600;2023-03-01T03:02:54;95675.34;;;4.76;100.00
40245;BME280;25963;42.694;23.600;2023-03-01T03:05:27;95665.38;;;4.79;100.00
40245;BME280;25963;42.694;23.600;2023-03-01T03:07:53;95670.13;;;4.76;100.00
40245;BME280;25963;42.694;23.600;2023-03-01T03:10:27;95669.66;;;4.64;100.00
40245;BME280;25963;42.694;23.600;2023-03-01T03:12:56;95669.13;;;4.69;100.00
40245;BME280;25963;42.694;23.600;2023-03-01T03:15:22;95669.81;;;4.63;100.00
40245;BME280;25963;42.694;23.600;2023-03-01T03:17:48;95669.31;;;4.67;100.00
40245;BME280;25963;42.694;23.600;2023-03-01T03:20:16;95671.81;;;4.52;100.00
40245;BME280;25963;42.694;23.600;2023-03-01T03:22:46;95672.63;;;4.53;100.00
40245;BME280;25963;42.694;23.600;2023-03-01T03:25:12;95673.91;;;4.57;100.00
40245;BME280;25963;42.694;23.600;2023-03-01T03:27:39;95666.25;;;4.47;100.00
40245;BME280;25963;42.694;23.600;2023-03-01T03:30:07;95680.94;;;4.48;100.00
40245;BME280;25963;42.694;23.600;2023-03-01T03:32:41;95677.03;;;4.44;100.00
40245;BME280;25963;42.694;23.600;2023-03-01T03:35:09;95687.31;;;4.54;100.00
40245;BME280;25963;42.694;23.600;2023-03-01T03:37:36;95683.75;;;4.39;100.00
40245;BME280;25963;42.694;23.600;2023-03-01T03:40:20;95678.03;;;4.43;100.00
40245;BME280;25963;42.694;23.600;2023-03-01T03:42:46;95682.44;;;4.43;100.00
40245;BME280;25963;42.694;23.600;2023-03-01T03:45:11;95684.22;;;4.42;100.00
40245;BME280;25963;42.694;23.600;2023-03-01T03:47:37;95689.13;;;4.45;100.00
40245;BME280;25963;42.694;23.600;2023-03-01T03:50:02;95687.34;;;4.46;100.00
40245;BME280;25963;42.694;23.600;2023-03-01T03:52:28;95680.94;;;4.48;100.00
40245;BME280;25963;42.694;23.600;2023-03-01T03:54:53;95682.41;;;4.51;100.00
40245;BME280;25963;42.694;23.600;2023-03-01T03:57:19;95686.50;;;4.53;100.00
40245;BME280;25963;42.694;23.600;2023-03-01T04:00:05;95683.22;;;4.60;100.00
40245;BME280;25963;42.694;23.600;2023-03-01T04:02:41;95694.53;;;4.52;100.00
40245;BME280;25963;42.694;23.600;2023-03-01T04:05:08;95687.44;;;4.61;100.00
40245;BME280;25963;42.694;23.600;2023-03-01T04:07:37;95689.09;;;4.53;100.00
40245;BME280;25963;42.694;23.600;2023-03-01T04:10:05;95688.44;;;4.51;100.00
40245;BME280;25963;42.694;23.600;2023-03-01T04:12:32;95693.00;;;4.57;100.00
40245;BME280;25963;42.694;23.600;2023-03-01T04:14:59;95677.38;;;4.49;100.00
40245;BME280;25963;42.694;23.600;2023-03-01T04:17:25;95686.50;;;4.62;100.00
40245;BME280;25963;42.694;23.600;2023-03-01T04:19:50;95696.09;;;4.69;100.00
40245;BME280;25963;42.694;23.600;2023-03-01T04:22:16;95691.88;;;4.60;100.00
40245;BME280;25963;42.694;23.600;2023-03-01T04:24:44;95692.03;;;4.58;100.00
40245;BME280;25963;42.694;23.600;2023-03-01T04:27:10;95689.75;;;4.64;100.00
40245;BME280;25963;42.694;23.600;2023-03-01T04:29:36;95687.28;;;4.62;100.00
40245;BME280;25963;42.694;23.600;2023-03-01T04:32:01;95691.72;;;4.62;100.00
40245;BME280;25963;42.694;23.600;2023-03-01T04:34:28;95690.72;;;4.54;100.00
40245;BME280;25963;42.694;23.600;2023-03-01T04:36:54;95690.41;;;4.57;100.00
40245;BME280;25963;42.694;23.600;2023-03-01T04:39:19;95689.09;;;4.53;100.00
40245;BME280;25963;42.694;23.600;2023-03-01T04:41:45;95691.06;;;4.51;100.00
40245;BME280;25963;42.694;23.600;2023-03-01T04:44:10;95685.84;;;4.51;100.00
40245;BME280;25963;42.694;23.600;2023-03-01T04:46:36;95688.31;;;4.45;100.00
40245;BME280;25963;42.694;23.600;2023-03-01T04:49:02;95680.78;;;4.50;100.00
40245;BME280;25963;42.694;23.600;2023-03-01T04:51:28;95673.78;;;4.50;100.00
40245;BME280;25963;42.694;23.600;2023-03-01T04:53:53;95672.63;;;4.53;100.00
40245;BME280;25963;42.694;23.600;2023-03-01T04:56:19;95678.53;;;4.47;100.00
40245;BME280;25963;42.694;23.600;2023-03-01T04:58:45;95666.78;;;4.34;100.00
40245;BME280;25963;42.694;23.600;2023-03-01T05:01:13;95680.94;;;4.48;100.00
40245;BME280;25963;42.694;23.600;2023-03-01T05:03:44;95683.41;;;4.50;100.00
40245;BME280;25963;42.694;23.600;2023-03-01T05:06:09;95682.09;;;4.54;100.00
40245;BME280;25963;42.694;23.600;2023-03-01T05:08:39;95691.25;;;4.58;100.00
40245;BME280;25963;42.694;23.600;2023-03-01T05:11:06;95682.94;;;4.46;100.00
40245;BME280;25963;42.694;23.600;2023-03-01T05:13:34;95674.09;;;4.47;100.00
40245;BME280;25963;42.694;23.600;2023-03-01T05:16:02;95694.19;;;4.47;100.00
40245;BME280;25963;42.694;23.600;2023-03-01T05:18:29;95699.09;;;4.50;100.00
40245;BME280;25963;42.694;23.600;2023-03-01T05:21:04;95696.00;;;4.38;100.00
40245;BME280;25963;42.694;23.600;2023-03-01T05:23:31;95696.97;;;4.45;100.00
40245;BME280;25963;42.694;23.600;2023-03-01T05:26:00;95697.94;;;4.36;100.00
40245;BME280;25963;42.694;23.600;2023-03-01T05:28:27;95691.91;;;4.35;100.00
40245;BME280;25963;42.694;23.600;2023-03-01T05:30:56;95688.16;;;4.46;100.00
40245;BME280;25963;42.694;23.600;2023-03-01T05:33:22;95698.28;;;4.41;100.00
40245;BME280;25963;42.694;23.600;2023-03-01T05:35:49;95694.03;;;4.40;100.00
40245;BME280;25963;42.694;23.600;2023-03-01T05:38:16;95688.16;;;4.46;100.00
40245;BME280;25963;42.694;23.600;2023-03-01T05:40:43;95698.28;;;4.41;100.00
40245;BME280;25963;42.694;23.600;2023-03-01T05:43:10;95695.53;;;4.34;100.00
40245;BME280;25963;42.694;23.600;2023-03-01T05:45:37;95694.03;;;4.40;100.00
40245;BME280;25963;42.694;23.600;2023-03-01T05:48:04;95703.66;;;4.48;100.00
40245;BME280;25963;42.694;23.600;2023-03-01T05:50:34;95704.16;;;4.43;100.00
40245;BME280;25963;42.694;23.600;2023-03-01T05:53:03;95711.34;;;4.41;100.00
40245;BME280;25963;42.694;23.600;2023-03-01T05:55:30;95717.88;;;4.37;100.00
40245;BME280;25963;42.694;23.600;2023-03-01T05:58:01;95706.59;;;4.45;100.00
40245;BME280;25963;42.694;23.600;2023-03-01T06:00:28;95709.69;;;4.48;100.00
40245;BME280;25963;42.694;23.600;2023-03-01T06:02:55;95712.28;;;4.48;100.00
40245;BME280;25963;42.694;23.600;2023-03-01T06:05:21;95718.84;;;4.52;100.00
40245;BME280;25963;42.694;23.600;2023-03-01T06:07:47;95719.97;;;4.58;100.00
40245;BME280;25963;42.694;23.600;2023-03-01T06:10:13;95722.09;;;4.54;100.00
40245;BME280;25963;42.694;23.600;2023-03-01T06:12:40;95724.41;;;4.49;100.00
40245;BME280;25963;42.694;23.600;2023-03-01T06:15:07;95734.19;;;4.64;100.00
40245;BME280;25963;42.694;23.600;2023-03-01T06:17:36;95733.53;;;4.62;100.00
40245;BME280;25963;42.694;23.600;2023-03-01T06:20:07;95735.63;;;4.66;100.00
40245;BME280;25963;42.694;23.600;2023-03-01T06:22:34;95736.13;;;4.70;100.00
40245;BME280;25963;42.694;23.600;2023-03-01T06:24:59;95735.59;;;4.83;100.00
40245;BME280;25963;42.694;23.600;2023-03-01T06:27:24;95739.25;;;4.49;100.00
40245;BME280;25963;42.694;23.600;2023-03-01T06:29:50;95743.16;;;4.53;100.00
40245;BME280;25963;42.694;23.600;2023-03-01T06:32:16;95743.66;;;4.65;100.00
40245;BME280;25963;42.694;23.600;2023-03-01T06:34:41;95746.41;;;4.63;100.00
40245;BME280;25963;42.694;23.600;2023-03-01T06:37:07;95741.69;;;4.58;100.00
40245;BME280;25963;42.694;23.600;2023-03-01T06:39:33;95748.06;;;4.48;100.00
40245;BME280;25963;42.694;23.600;2023-03-01T06:41:58;95741.03;;;4.65;100.00
40245;BME280;25963;42.694;23.600;2023-03-01T06:44:24;95741.16;;;4.79;100.00
40245;BME280;25963;42.694;23.600;2023-03-01T06:46:49;95738.88;;;4.76;100.00
40245;BME280;25963;42.694;23.600;2023-03-01T06:49:15;95732.53;;;4.71;100.00
40245;BME280;25963;42.694;23.600;2023-03-01T06:51:43;95739.03;;;4.83;100.00
40245;BME280;25963;42.694;23.600;2023-03-01T06:54:08;95739.03;;;4.75;100.00
40245;BME280;25963;42.694;23.600;2023-03-01T06:56:33;95741.16;;;4.71;100.00
40245;BME280;25963;42.694;23.600;2023-03-01T06:58:59;95742.78;;;4.80;100.00
40245;BME280;25963;42.694;23.600;2023-03-01T07:01:24;95739.97;;;4.90;100.00
40245;BME280;25963;42.694;23.600;2023-03-01T07:03:50;95737.69;;;4.95;100.00
40245;BME280;25963;42.694;23.600;2023-03-01T07:06:15;95738.03;;;4.92;100.00
40245;BME280;25963;42.694;23.600;2023-03-01T07:08:41;95744.38;;;4.98;100.00
40245;BME280;25963;42.694;23.600;2023-03-01T07:11:06;95741.91;;;4.96;100.00
40245;BME280;25963;42.694;23.600;2023-03-01T07:13:32;95733.91;;;4.98;100.00
40245;BME280;25963;42.694;23.600;2023-03-01T07:15:57;95745.16;;;5.07;100.00
40245;BME280;25963;42.694;23.600;2023-03-01T07:18:23;95737.94;;;5.17;100.00
40245;BME280;25963;42.694;23.600;2023-03-01T07:20:49;95737.13;;;5.16;100.00
40245;BME280;25963;42.694;23.600;2023-03-01T07:23:14;95744.16;;;5.16;100.00
40245;BME280;25963;42.694;23.600;2023-03-01T07:25:40;95738.94;;;5.08;100.00
40245;BME280;25963;42.694;23.600;2023-03-01T07:28:06;95737.00;;;5.10;100.00
40245;BME280;25963;42.694;23.600;2023-03-01T07:30:31;95741.66;;;5.22;100.00
40245;BME280;25963;42.694;23.600;2023-03-01T07:32:58;95731.53;;;5.28;100.00
40245;BME280;25963;42.694;23.600;2023-03-01T07:35:25;95739.03;;;5.31;100.00
40245;BME280;25963;42.694;23.600;2023-03-01T07:37:52;95730.06;;;5.25;100.00
40245;BME280;25963;42.694;23.600;2023-03-01T07:40:17;95735.63;;;5.22;100.00
40245;BME280;25963;42.694;23.600;2023-03-01T07:42:43;95728.72;;;5.29;100.00
40245;BME280;25963;42.694;23.600;2023-03-01T07:45:09;95734.72;;;5.38;100.00
40245;BME280;25963;42.694;23.600;2023-03-01T07:47:35;95732.88;;;5.55;100.00
40245;BME280;25963;42.694;23.600;2023-03-01T07:50:00;95728.06;;;5.66;100.00
40245;BME280;25963;42.694;23.600;2023-03-01T07:52:27;95711.63;;;5.49;100.00
40245;BME280;25963;42.694;23.600;2023-03-01T07:54:52;95723.59;;;5.44;100.00
40245;BME280;25963;42.694;23.600;2023-03-01T07:57:17;95720.13;;;5.52;100.00
40245;BME280;25963;42.694;23.600;2023-03-01T07:59:43;95716.72;;;5.43;100.00
40245;BME280;25963;42.694;23.600;2023-03-01T08:02:10;95712.50;;;5.42;100.00
40245;BME280;25963;42.694;23.600;2023-03-01T08:04:35;95718.50;;;5.51;100.00
40245;BME280;25963;42.694;23.600;2023-03-01T08:07:01;95715.81;;;5.59;100.00
40245;BME280;25963;42.694;23.600;2023-03-01T08:09:26;95707.28;;;5.65;100.00
40245;BME280;25963;42.694;23.600;2023-03-01T08:11:52;95714.78;;;5.68;100.00
40245;BME280;25963;42.694;23.600;2023-03-01T08:14:17;95715.03;;;5.81;100.00
40245;BME280;25963;42.694;23.600;2023-03-01T08:16:42;95707.13;;;5.66;100.00
40245;BME280;25963;42.694;23.600;2023-03-01T08:19:09;95707.13;;;5.66;100.00
40245;BME280;25963;42.694;23.600;2023-03-01T08:21:36;95711.81;;;5.71;100.00
40245;BME280;25963;42.694;23.600;2023-03-01T08:24:03;95703.00;;;5.95;100.00
40245;BME280;25963;42.694;23.600;2023-03-01T08:26:29;95704.63;;;5.73;100.00
40245;BME280;25963;42.694;23.600;2023-03-01T08:28:55;95695.66;;;5.90;100.00
40245;BME280;25963;42.694;23.600;2023-03-01T08:31:30;95705.19;;;5.83;100.00
40245;BME280;25963;42.694;23.600;2023-03-01T08:33:58;95705.13;;;5.91;100.00
40245;BME280;25963;42.694;23.600;2023-03-01T08:36:27;95705.81;;;5.93;100.00
40245;BME280;25963;42.694;23.600;2023-03-01T08:38:53;95700.72;;;5.92;100.00
40245;BME280;25963;42.694;23.600;2023-03-01T08:41:19;95710.97;;;5.79;100.00
40245;BME280;25963;42.694;23.600;2023-03-01T08:43:44;95711.78;;;5.79;100.00
40245;BME280;25963;42.694;23.600;2023-03-01T08:46:11;95715.00;;;5.89;100.00
40245;BME280;25963;42.694;23.600;2023-03-01T08:48:36;95710.41;;;5.83;100.00
40245;BME280;25963;42.694;23.600;2023-03-01T08:53:38;95701.03;;;5.97;100.00
40245;BME280;25963;42.694;23.600;2023-03-01T08:56:03;95707.75;;;6.00;100.00
40245;BME280;25963;42.694;23.600;2023-03-01T08:58:29;95712.13;;;6.07;100.00
40245;BME280;25963;42.694;23.600;2023-03-01T09:00:55;95704.81;;;6.17;100.00
40245;BME280;25963;42.694;23.600;2023-03-01T09:03:24;95709.13;;;6.10;100.00
40245;BME280;25963;42.694;23.600;2023-03-01T09:05:51;95713.28;;;6.05;100.00
40245;BME280;25963;42.694;23.600;2023-03-01T09:08:17;95717.50;;;6.06;100.00
40245;BME280;25963;42.694;23.600;2023-03-01T09:10:42;95715.16;;;5.88;100.00
40245;BME280;25963;42.694;23.600;2023-03-01T09:13:08;95711.34;;;5.99;100.00
40245;BME280;25963;42.694;23.600;2023-03-01T09:15:37;95718.91;;;5.93;100.00
40245;BME280;25963;42.694;23.600;2023-03-01T09:18:02;95722.25;;;5.79;100.00
40245;BME280;25963;42.694;23.600;2023-03-01T09:20:28;95706.72;;;5.78;100.00
40245;BME280;25963;42.694;23.600;2023-03-01T09:22:53;95704.88;;;5.86;100.00
40245;BME280;25963;42.694;23.600;2023-03-01T09:25:19;95707.81;;;5.83;100.00
40245;BME280;25963;42.694;23.600;2023-03-01T09:27:44;95708.44;;;5.93;100.00
40245;BME280;25963;42.694;23.600;2023-03-01T09:30:10;95706.78;;;6.15;100.00
40245;BME280;25963;42.694;23.600;2023-03-01T09:32:36;95696.47;;;5.91;100.00
40245;BME280;25963;42.694;23.600;2023-03-01T09:35:01;95701.56;;;5.92;100.00
40245;BME280;25963;42.694;23.600;2023-03-01T09:37:30;95700.78;;;6.07;100.00
40245;BME280;25963;42.694;23.600;2023-03-01T09:39:55;95702.44;;;6.08;100.00
40245;BME280;25963;42.694;23.600;2023-03-01T09:42:21;95698.53;;;6.04;100.00
40245;BME280;25963;42.694;23.600;2023-03-01T09:44:54;95691.44;;;5.89;100.00
40245;BME280;25963;42.694;23.600;2023-03-01T09:47:34;95695.44;;;6.23;100.00
40245;BME280;25963;42.694;23.600;2023-03-01T09:50:14;95699.81;;;6.46;100.00
40245;BME280;25963;42.694;23.600;2023-03-01T09:52:50;95698.34;;;6.43;100.00
40245;BME280;25963;42.694;23.600;2023-03-01T09:55:30;95693.84;;;6.52;100.00
40245;BME280;25963;42.694;23.600;2023-03-01T10:06:09;95676.88;;;6.62;100.00
40245;BME280;25963;42.694;23.600;2023-03-01T10:08:43;95666.47;;;6.69;100.00
40245;BME280;25963;42.694;23.600;2023-03-01T10:11:25;95666.03;;;6.80;100.00
40245;BME280;25963;42.694;23.600;2023-03-01T10:19:39;95672.00;;;6.74;100.00
40245;BME280;25963;42.694;23.600;2023-03-01T10:22:13;95669.75;;;6.86;100.00
40245;BME280;25963;42.694;23.600;2023-03-01T10:24:40;95666.03;;;6.66;100.00
40245;BME280;25963;42.694;23.600;2023-03-01T10:27:19;95664.78;;;6.61;100.00
40245;BME280;25963;42.694;23.600;2023-03-01T10:32:16;95663.03;;;6.54;100.00
40245;BME280;25963;42.694;23.600;2023-03-01T10:34:42;95655.47;;;6.59;100.00
40245;BME280;25963;42.694;23.600;2023-03-01T10:37:13;95648.75;;;6.56;100.00
40245;BME280;25963;42.694;23.600;2023-03-01T10:40:03;95648.56;;;6.73;100.00
40245;BME280;25963;42.694;23.600;2023-03-01T10:42:45;95648.56;;;6.88;100.00
40245;BME280;25963;42.694;23.600;2023-03-01T10:50:49;95630.84;;;6.90;100.00
40245;BME280;25963;42.694;23.600;2023-03-01T10:53:48;95638.19;;;6.65;100.00
40245;BME280;25963;42.694;23.600;2023-03-01T10:56:15;95631.88;;;6.59;100.00
40245;BME280;25963;42.694;23.600;2023-03-01T10:58:59;95630.22;;;6.73;100.00
40245;BME280;25963;42.694;23.600;2023-03-01T11:01:30;95628.16;;;6.68;100.00
40245;BME280;25963;42.694;23.600;2023-03-01T11:06:33;95616.28;;;6.87;100.00
40245;BME280;25963;42.694;23.600;2023-03-01T11:09:22;95622.44;;;7.09;100.00
40245;BME280;25963;42.694;23.600;2023-03-01T11:11:55;95619.34;;;7.05;100.00
40245;BME280;25963;42.694;23.600;2023-03-01T11:14:23;95604.69;;;7.32;100.00
40245;BME280;25963;42.694;23.600;2023-03-01T11:16:59;95614.59;;;7.30;100.00
40245;BME280;25963;42.694;23.600;2023-03-01T11:19:26;95609.75;;;7.13;100.00
40245;BME280;25963;42.694;23.600;2023-03-01T11:22:14;95604.88;;;7.09;100.00
40245;BME280;25963;42.694;23.600;2023-03-01T11:24:54;95611.66;;;7.04;100.00
40245;BME280;25963;42.694;23.600;2023-03-01T11:27:41;95603.69;;;7.12;100.00
40245;BME280;25963;42.694;23.600;2023-03-01T11:30:30;95615.88;;;7.20;100.00
40245;BME280;25963;42.694;23.600;2023-03-01T11:35:59;95601.91;;;7.34;100.00
40245;BME280;25963;42.694;23.600;2023-03-01T11:38:27;95611.53;;;7.27;100.00
40245;BME280;25963;42.694;23.600;2023-03-01T11:59:53;95601.16;;;7.04;100.00
40245;BME280;25963;42.694;23.600;2023-03-01T12:05:42;95589.69;;;6.90;100.00
40245;BME280;25963;42.694;23.600;2023-03-01T12:08:20;95595.50;;;6.85;100.00
40245;BME280;25963;42.694;23.600;2023-03-01T12:11:20;95577.72;;;6.66;100.00
40245;BME280;25963;42.694;23.600;2023-03-01T12:22:27;95584.66;;;6.89;100.00
40245;BME280;25963;42.694;23.600;2023-03-01T12:27:50;95570.25;;;7.21;100.00
40245;BME280;25963;42.694;23.600;2023-03-01T12:38:42;95575.41;;;7.29;100.00
40245;BME280;25963;42.694;23.600;2023-03-01T12:41:21;95569.81;;;7.17;100.00
40245;BME280;25963;42.694;23.600;2023-03-01T12:49:14;95569.06;;;7.02;100.00
40245;BME280;25963;42.694;23.600;2023-03-01T12:51:46;95573.97;;;6.90;100.00
40245;BME280;25963;42.694;23.600;2023-03-01T12:54:22;95563.41;;;6.83;100.00
40245;BME280;25963;42.694;23.600;2023-03-01T12:56:50;95570.44;;;6.98;100.00
40245;BME280;25963;42.694;23.600;2023-03-01T12:59:39;95574.16;;;6.89;100.00
40245;BME280;25963;42.694;23.600;2023-03-01T13:05:19;95562.03;;;6.88;100.00
40245;BME280;25963;42.694;23.600;2023-03-01T13:08:29;95565.50;;;6.88;100.00
40245;BME280;25963;42.694;23.600;2023-03-01T13:11:01;95556.19;;;6.71;100.00
40245;BME280;25963;42.694;23.600;2023-03-01T13:13:29;95555.38;;;6.70;100.00
40245;BME280;25963;42.694;23.600;2023-03-01T13:15:55;95563.34;;;6.77;100.00
40245;BME280;25963;42.694;23.600;2023-03-01T13:20:51;95549.50;;;7.04;100.00
40245;BME280;25963;42.694;23.600;2023-03-01T13:33:54;95566.31;;;7.10;100.00
40245;BME280;25963;42.694;23.600;2023-03-01T13:49:47;95557.13;;;6.99;100.00
40245;BME280;25963;42.694;23.600;2023-03-01T13:57:58;95559.53;;;6.79;100.00
40245;BME280;25963;42.694;23.600;2023-03-01T14:05:38;95556.63;;;6.74;100.00
40245;BME280;25963;42.694;23.600;2023-03-01T14:08:04;95550.66;;;6.80;100.00
40245;BME280;25963;42.694;23.600;2023-03-01T14:10:43;95549.66;;;6.81;100.00
40245;BME280;25963;42.694;23.600;2023-03-01T14:13:24;95546.50;;;6.86;100.00
40245;BME280;25963;42.694;23.600;2023-03-01T14:21:31;95553.59;;;6.56;100.00
40245;BME280;25963;42.694;23.600;2023-03-01T14:23:57;95559.81;;;6.55;100.00
40245;BME280;25963;42.694;23.600;2023-03-01T14:26:23;95556.16;;;6.34;100.00
40245;BME280;25963;42.694;23.600;2023-03-01T14:28:50;95556.75;;;6.36;100.00
40245;BME280;25963;42.694;23.600;2023-03-01T14:33:59;95552.16;;;6.38;100.00
40245;BME280;25963;42.694;23.600;2023-03-01T14:36:27;95549.53;;;6.38;100.00
40245;BME280;25963;42.694;23.600;2023-03-01T14:38:53;95546.91;;;6.24;100.00
40245;BME280;25963;42.694;23.600;2023-03-01T14:41:24;95548.28;;;6.34;100.00
40245;BME280;25963;42.694;23.600;2023-03-01T14:43:55;95544.66;;;6.35;100.00
40245;BME280;25963;42.694;23.600;2023-03-01T14:46:28;95553.16;;;6.37;100.00
40245;BME280;25963;42.694;23.600;2023-03-01T14:49:00;95549.09;;;6.35;100.00
40245;BME280;25963;42.694;23.600;2023-03-01T14:51:26;95550.06;;;6.49;100.00
40245;BME280;25963;42.694;23.600;2023-03-01T14:53:52;95544.66;;;6.35;100.00
40245;BME280;25963;42.694;23.600;2023-03-01T14:56:18;95544.75;;;6.27;100.00
40245;BME280;25963;42.694;23.600;2023-03-01T14:58:44;95552.31;;;6.22;100.00
40245;BME280;25963;42.694;23.600;2023-03-01T15:01:15;95542.84;;;6.51;100.00
40245;BME280;25963;42.694;23.600;2023-03-01T15:03:50;95552.50;;;6.50;100.00
40245;BME280;25963;42.694;23.600;2023-03-01T15:06:18;95539.34;;;6.29;100.00
40245;BME280;25963;42.694;23.600;2023-03-01T15:08:47;95548.38;;;6.41;100.00
40245;BME280;25963;42.694;23.600;2023-03-01T15:13:39;95545.31;;;6.23;100.00
40245;BME280;25963;42.694;23.600;2023-03-01T15:16:17;95542.13;;;6.27;100.00
40245;BME280;25963;42.694;23.600;2023-03-01T15:18:46;95537.31;;;6.31;100.00
40245;BME280;25963;42.694;23.600;2023-03-01T15:21:20;95544.66;;;6.21;100.00
40245;BME280;25963;42.694;23.600;2023-03-01T15:24:00;95536.72;;;6.29;100.00